createdAt,value
2018-01-25T17:12:28.069Z,99198.59
2018-01-25T17:15:00.698Z,99208.09
2018-01-25T17:17:33.772Z,99212.97
2018-01-25T17:20:10.281Z,99210.86
2018-01-25T17:22:44.154Z,99213.65
2018-01-25T17:25:16.297Z,99208.27
2018-01-25T17:27:49.559Z,99206.00
2018-01-25T17:30:26.509Z,99160.75
2018-01-25T17:32:59.847Z,99202.20
2018-01-25T17:35:37.222Z,99200.16
2018-01-25T17:38:10.010Z,99195.09
2018-01-25T17:40:48.403Z,99181.94
2018-01-25T17:44:45.538Z,99205.63
2018-01-25T17:47:19.252Z,99197.77
2018-01-25T17:49:54.470Z,99205.47
2018-01-25T17:52:26.560Z,99191.80
2018-01-25T17:55:03.478Z,99195.89
2018-01-25T17:57:39.664Z,99215.38
2018-01-25T18:00:24.222Z,99219.97
2018-01-25T18:02:57.626Z,99205.20
2018-01-25T18:05:32.189Z,99211.11
2018-01-25T18:08:04.473Z,99214.92
2018-01-25T18:10:36.188Z,99212.33
2018-01-25T18:13:12.032Z,99205.67
2018-01-25T18:15:47.699Z,99205.92
2018-01-25T18:18:21.348Z,99204.86
2018-01-25T18:20:55.573Z,99194.61
2018-01-25T18:23:27.530Z,99203.02
2018-01-25T18:26:07.378Z,99181.66
2018-01-25T18:28:40.858Z,99193.48
2018-01-25T18:31:13.825Z,99185.21
2018-01-25T18:33:55.029Z,99201.20
2018-01-25T18:36:29.105Z,99201.20
2018-01-25T18:39:02.044Z,99196.13
2018-01-25T18:41:33.823Z,99206.59
2018-01-25T18:44:06.193Z,99186.11
2018-01-25T18:46:38.159Z,99204.63
2018-01-25T18:49:10.227Z,99194.21
2018-01-25T18:51:44.223Z,99191.41
2018-01-25T18:54:17.701Z,99212.97
2018-01-25T18:56:51.062Z,99216.87
2018-01-25T18:59:23.374Z,99231.25
2018-01-25T19:01:58.350Z,99216.30
2018-01-25T19:04:33.034Z,99206.23
2018-01-25T19:07:04.777Z,99216.36
2018-01-25T19:09:37.010Z,99217.77
2018-01-25T19:12:09.106Z,99192.18
2018-01-25T19:14:42.355Z,99209.30
2018-01-25T19:17:15.077Z,99198.06
2018-01-25T19:19:47.852Z,99194.78
2018-01-25T19:22:19.560Z,99193.68
2018-01-25T19:24:51.260Z,99190.97
2018-01-25T19:27:24.106Z,99201.55
2018-01-25T19:29:57.377Z,99207.99
2018-01-25T19:32:39.811Z,99168.70
2018-01-25T19:35:12.081Z,99212.47
2018-01-25T19:37:44.913Z,99201.69
2018-01-25T19:40:17.515Z,99218.56
2018-01-25T19:42:50.369Z,99203.29
2018-01-25T19:45:26.268Z,99214.63
2018-01-25T19:47:59.544Z,99203.59
2018-01-25T19:50:35.016Z,99200.19
2018-01-25T19:53:12.528Z,99196.84
2018-01-25T19:55:44.629Z,99193.74
2018-01-25T19:58:17.215Z,99190.05
2018-01-25T20:00:49.042Z,99187.00
2018-01-25T20:03:20.970Z,99177.01
2018-01-25T20:05:54.449Z,99177.41
2018-01-25T20:08:26.461Z,99168.05
2018-01-25T20:10:57.854Z,99162.84
2018-01-25T20:13:31.081Z,99152.67
2018-01-25T20:16:03.312Z,99168.44
2018-01-25T20:18:35.387Z,99170.48
2018-01-25T20:21:08.998Z,99173.29
2018-01-25T20:23:40.881Z,99163.67
2018-01-25T20:26:13.445Z,99162.53
2018-01-25T20:28:50.602Z,99166.51
2018-01-25T20:31:25.699Z,99158.89
2018-01-25T20:33:58.018Z,99162.67
2018-01-25T20:36:30.933Z,99155.29
2018-01-25T20:39:04.554Z,99157.89
2018-01-25T20:41:38.218Z,99154.36
2018-01-25T20:44:12.169Z,99148.02
2018-01-25T20:46:46.652Z,99157.23
2018-01-25T20:49:28.104Z,99131.69
2018-01-25T20:52:02.046Z,99141.34
2018-01-25T20:54:38.879Z,99139.48
2018-01-25T20:57:14.542Z,99159.00
2018-01-25T20:59:51.197Z,99121.28
2018-01-25T21:02:27.215Z,99146.91
2018-01-25T21:05:03.398Z,99137.52
2018-01-25T21:07:38.218Z,99139.37
2018-01-25T21:10:16.575Z,99140.91
2018-01-25T21:12:49.116Z,99138.57
2018-01-25T21:15:26.207Z,99141.31
2018-01-25T21:17:58.682Z,99136.50
2018-01-25T21:20:34.886Z,99139.02
2018-01-25T21:23:10.738Z,99136.08
2018-01-25T21:25:44.016Z,99143.27
2018-01-25T21:28:17.168Z,99122.12
2018-01-25T21:30:51.439Z,99145.95
2018-01-25T21:33:27.872Z,99141.95
2018-01-25T21:36:06.873Z,99144.44
2018-01-25T21:38:40.221Z,99133.30
2018-01-25T21:41:18.986Z,99121.22
2018-01-25T21:43:52.169Z,99117.58
2018-01-25T21:46:26.094Z,99128.34
2018-01-25T21:49:04.827Z,99127.67
2018-01-25T21:51:38.212Z,99124.68
2018-01-25T21:54:17.170Z,99109.66
2018-01-25T21:56:50.481Z,99125.37
